Time;durP1;ratioP1;P1;durP2;ratioP2;P2;SDS_P1;SDS_P2;PMS_P1;PMS_P2;Temp;Humidity;BMP_temperature;BMP_pressure;BME280_temperature;BME280_humidity;BME280_pressure;Samples;Min_cycle;Max_cycle;Signal;HPM_P1;HPM_P2
2022/08/27 00:00:18;;;;;;;8.88;7.97;;;20.20;99.90;;;;;;5033383;28;20185;-32
2022/08/27 00:02:44;;;;;;;8.25;7.43;;;20.10;99.90;;;;;;5050022;28;20269;-33
2022/08/27 00:05:12;;;;;;;7.88;7.03;;;20.10;99.90;;;;;;5049754;28;20201;-33
2022/08/27 00:07:38;;;;;;;8.55;7.30;;;20.10;99.90;;;;;;5033508;28;20251;-32
2022/08/27 00:10:07;;;;;;;9.32;7.57;;;20.10;99.90;;;;;;5032971;28;20192;-35
2022/08/27 00:12:33;;;;;;;8.27;7.43;;;20.10;99.90;;;;;;5033399;28;20290;-35
2022/08/27 00:15:00;;;;;;;8.38;7.57;;;20.10;99.90;;;;;;5049711;28;20205;-34
2022/08/27 00:17:26;;;;;;;10.98;7.75;;;20.00;99.90;;;;;;5033291;28;20249;-33
2022/08/27 00:19:52;;;;;;;9.35;8.45;;;20.00;99.90;;;;;;5033211;28;20182;-34
2022/08/27 00:22:18;;;;;;;15.38;8.90;;;20.00;99.90;;;;;;5033217;28;20188;-35
2022/08/27 00:24:44;;;;;;;9.80;8.75;;;20.00;99.90;;;;;;5049459;28;20205;-33
2022/08/27 00:27:10;;;;;;;11.98;9.00;;;20.10;99.90;;;;;;5050843;28;20173;-34
2022/08/27 00:29:35;;;;;;;9.88;8.20;;;20.10;99.90;;;;;;5032962;28;20180;-33
2022/08/27 00:32:02;;;;;;;10.68;7.93;;;20.10;99.90;;;;;;5049673;28;20217;-33
2022/08/27 00:34:28;;;;;;;9.38;7.50;;;20.10;99.90;;;;;;5049559;28;20217;-35
2022/08/27 00:36:54;;;;;;;10.60;7.45;;;20.00;99.90;;;;;;5032658;28;20178;-35
2022/08/27 00:39:20;;;;;;;9.60;7.35;;;19.90;99.90;;;;;;5051175;28;20178;-33
2022/08/27 00:41:46;;;;;;;9.00;6.63;;;19.90;99.90;;;;;;5032738;28;20231;-33
2022/08/27 00:44:12;;;;;;;8.27;7.22;;;19.90;99.90;;;;;;5049439;28;20210;-32
2022/08/27 00:46:40;;;;;;;7.30;6.63;;;19.80;99.90;;;;;;5032966;28;20636;-33
2022/08/27 00:49:25;;;;;;;7.70;6.72;;;19.90;99.90;;;;;;5033112;28;20182;-36
2022/08/27 00:52:17;;;;;;;7.88;6.65;;;19.90;99.90;;;;;;5049295;28;20296;-33
2022/08/27 00:54:44;;;;;;;6.60;5.97;;;19.90;99.90;;;;;;5049354;28;20213;-35
2022/08/27 00:57:10;;;;;;;10.73;7.25;;;19.80;99.90;;;;;;5032574;28;20232;-33
2022/08/27 00:59:35;;;;;;;7.75;6.70;;;19.80;99.90;;;;;;5049399;28;20236;-33
2022/08/27 01:02:19;;;;;;;7.85;6.97;;;19.70;99.90;;;;;;5032824;28;20193;-33
2022/08/27 01:04:54;;;;;;;8.77;7.10;;;19.70;99.90;;;;;;5032731;28;20206;-33
2022/08/27 01:07:22;;;;;;;7.65;6.85;;;19.70;99.90;;;;;;5050490;28;20173;-35
2022/08/27 01:09:48;;;;;;;7.82;7.03;;;19.70;99.90;;;;;;5049294;28;20205;-34
2022/08/27 01:12:15;;;;;;;7.40;6.60;;;19.70;99.90;;;;;;5049389;28;20205;-32
2022/08/27 01:14:43;;;;;;;8.30;7.00;;;19.60;99.90;;;;;;5048993;28;20202;-35
2022/08/27 01:17:10;;;;;;;9.38;7.22;;;19.60;99.90;;;;;;5032932;28;20224;-35
2022/08/27 01:19:53;;;;;;;7.97;6.70;;;19.60;99.90;;;;;;5053242;28;20198;-33
2022/08/27 01:22:25;;;;;;;7.80;7.00;;;19.60;99.90;;;;;;5053146;28;20628;-32
2022/08/27 01:24:55;;;;;;;7.97;7.20;;;19.60;99.90;;;;;;5052901;28;20309;-33
2022/08/27 01:27:25;;;;;;;9.10;8.10;;;19.60;99.90;;;;;;5054299;28;20178;-35
2022/08/27 01:29:51;;;;;;;7.78;7.07;;;19.50;99.90;;;;;;5036501;28;20206;-36
2022/08/27 01:32:24;;;;;;;8.27;6.85;;;19.40;99.90;;;;;;5052927;28;20248;-33
2022/08/27 01:34:51;;;;;;;7.20;6.50;;;19.50;99.90;;;;;;5036225;28;20289;-34
2022/08/27 01:37:18;;;;;;;8.93;7.35;;;19.50;99.90;;;;;;5036176;28;20186;-32
2022/08/27 01:39:44;;;;;;;9.25;7.05;;;19.50;99.90;;;;;;5035998;28;20244;-33
2022/08/27 01:42:21;;;;;;;8.50;7.70;;;19.50;99.90;;;;;;5052825;28;20216;-35
2022/08/27 01:44:54;;;;;;;8.68;7.25;;;19.50;99.90;;;;;;5053982;28;20200;-35
2022/08/27 01:47:22;;;;;;;8.13;6.95;;;19.50;99.90;;;;;;5052431;28;20186;-34
2022/08/27 01:49:48;;;;;;;10.05;7.82;;;19.60;99.90;;;;;;5052506;28;20178;-35
2022/08/27 01:52:17;;;;;;;9.75;7.30;;;19.60;99.90;;;;;;5052205;28;20206;-33
2022/08/27 01:54:42;;;;;;;8.07;7.10;;;19.60;99.90;;;;;;5035694;28;20289;-35
2022/08/27 01:57:08;;;;;;;7.80;7.10;;;19.60;99.90;;;;;;5052434;28;20292;-35
2022/08/27 01:59:34;;;;;;;7.47;6.78;;;19.60;99.90;;;;;;5052462;28;20185;-35
2022/08/27 02:02:03;;;;;;;8.23;7.43;;;19.60;99.90;;;;;;5035445;28;20315;-34
2022/08/27 02:04:30;;;;;;;8.48;7.68;;;19.60;99.90;;;;;;5053586;28;20193;-34
2022/08/27 02:06:56;;;;;;;11.65;8.82;;;19.50;99.90;;;;;;5035337;28;20174;-34
2022/08/27 02:09:23;;;;;;;9.70;8.23;;;19.50;99.90;;;;;;5052225;28;20185;-33
2022/08/27 02:11:49;;;;;;;10.38;8.73;;;19.50;99.90;;;;;;5035545;28;20214;-33
2022/08/27 02:14:14;;;;;;;11.40;8.80;;;19.60;99.90;;;;;;5035609;28;20202;-33
2022/08/27 02:16:41;;;;;;;9.38;8.45;;;19.60;99.90;;;;;;5035303;28;20177;-33
2022/08/27 02:19:07;;;;;;;10.48;7.63;;;19.60;99.90;;;;;;5052114;28;20182;-35
2022/08/27 02:21:34;;;;;;;10.57;8.95;;;19.60;99.90;;;;;;5052215;28;20185;-32
2022/08/27 02:24:00;;;;;;;10.85;9.60;;;19.60;99.90;;;;;;5079503;22;20233;-31
2022/08/27 02:26:26;;;;;;;10.48;8.85;;;19.70;99.90;;;;;;5016551;28;20202;-33
2022/08/27 02:28:53;;;;;;;12.65;9.80;;;19.70;99.90;;;;;;5034117;28;20663;-32
2022/08/27 02:31:20;;;;;;;14.57;10.93;;;19.60;99.90;;;;;;5035126;28;20201;-32
2022/08/27 02:33:46;;;;;;;11.57;9.80;;;19.60;99.90;;;;;;5034941;28;20182;-32
2022/08/27 02:36:12;;;;;;;10.65;9.35;;;19.50;99.90;;;;;;5018444;28;20264;-33
2022/08/27 02:38:39;;;;;;;10.25;9.25;;;19.60;99.90;;;;;;5034946;28;20182;-32
2022/08/27 02:41:05;;;;;;;10.13;9.13;;;19.50;99.90;;;;;;5034955;28;20178;-33
2022/08/27 02:43:30;;;;;;;10.82;9.10;;;19.50;99.90;;;;;;5018576;28;20178;-33
2022/08/27 02:45:56;;;;;;;7.78;7.03;;;19.40;99.90;;;;;;5034823;28;20221;-32
2022/08/27 02:48:24;;;;;;;9.73;8.73;;;19.40;99.90;;;;;;5017942;28;20186;-31
2022/08/27 02:50:50;;;;;;;8.93;8.02;;;19.30;99.90;;;;;;5018049;28;20217;-32
2022/08/27 02:53:17;;;;;;;9.88;8.55;;;19.30;99.90;;;;;;5035030;28;20200;-33
2022/08/27 02:55:44;;;;;;;9.60;8.60;;;19.20;99.90;;;;;;5035064;28;20216;-32
2022/08/27 02:58:11;;;;;;;9.80;8.52;;;19.20;99.90;;;;;;5017815;28;20181;-34
2022/08/27 03:00:37;;;;;;;11.00;8.52;;;19.30;99.90;;;;;;5052649;28;20288;-32
2022/08/27 03:03:03;;;;;;;10.80;9.80;;;19.30;99.90;;;;;;5018094;28;20293;-32
2022/08/27 03:05:29;;;;;;;10.77;9.65;;;19.20;99.90;;;;;;5034443;28;20208;-32
2022/08/27 03:07:54;;;;;;;10.70;9.60;;;19.10;99.90;;;;;;5034091;28;20181;-32
2022/08/27 03:10:21;;;;;;;11.82;9.98;;;19.10;99.90;;;;;;5018064;28;20185;-32
2022/08/27 03:12:47;;;;;;;11.68;9.95;;;19.10;99.90;;;;;;5034385;28;20213;-32
2022/08/27 03:15:16;;;;;;;10.95;9.32;;;19.20;99.90;;;;;;5017817;28;20198;-32
2022/08/27 03:20:27;;;;;;;11.65;10.10;;;19.20;99.90;;;;;;5034313;28;20182;-32
2022/08/27 03:22:53;;;;;;;9.98;9.02;;;19.30;99.90;;;;;;5017774;28;20185;-32
2022/08/27 03:25:19;;;;;;;10.65;9.50;;;19.30;99.90;;;;;;5017758;28;20214;-32
2022/08/27 03:27:46;;;;;;;12.02;10.75;;;19.30;99.90;;;;;;5017656;28;20293;-33
2022/08/27 03:30:15;;;;;;;13.30;11.02;;;19.20;99.90;;;;;;5017378;28;20193;-33
2022/08/27 03:32:42;;;;;;;12.02;10.75;;;19.10;99.90;;;;;;5033996;28;20251;-32
2022/08/27 03:35:08;;;;;;;13.93;10.10;;;19.00;99.90;;;;;;5034196;28;20202;-32
2022/08/27 03:37:34;;;;;;;12.35;10.13;;;19.00;99.90;;;;;;5017231;28;20185;-32
2022/08/27 03:40:00;;;;;;;11.55;10.45;;;19.00;99.90;;;;;;5016834;28;20173;-32
2022/08/27 03:42:26;;;;;;;10.77;9.68;;;19.00;99.90;;;;;;5033619;28;20189;-33
2022/08/27 03:44:52;;;;;;;12.40;11.07;;;19.00;99.90;;;;;;5017193;28;20205;-32
2022/08/27 03:47:18;;;;;;;14.15;12.00;;;19.00;99.90;;;;;;5016960;28;20242;-33
2022/08/27 03:49:44;;;;;;;12.73;10.77;;;18.90;99.90;;;;;;5017507;28;20182;-32
2022/08/27 03:52:10;;;;;;;11.95;10.55;;;19.00;99.90;;;;;;5017200;28;20210;-33
2022/08/27 03:54:37;;;;;;;13.05;11.52;;;19.00;99.90;;;;;;5033493;28;20205;-33
2022/08/27 03:57:04;;;;;;;13.23;11.57;;;19.10;99.90;;;;;;5033238;28;20177;-33
2022/08/27 03:59:30;;;;;;;12.20;10.95;;;19.10;99.90;;;;;;5016926;28;20316;-33
2022/08/27 04:01:56;;;;;;;13.15;10.70;;;19.20;99.90;;;;;;5031936;28;20288;-32
2022/08/27 04:04:25;;;;;;;13.32;11.90;;;19.20;99.90;;;;;;5016930;28;20384;-32
2022/08/27 04:06:51;;;;;;;12.05;10.95;;;19.20;99.90;;;;;;5016505;28;20267;-32
2022/08/27 04:09:17;;;;;;;12.23;10.82;;;19.30;99.90;;;;;;5051644;28;20209;-32
2022/08/27 04:11:43;;;;;;;14.55;12.63;;;19.30;99.90;;;;;;5033246;28;20216;-33
2022/08/27 04:14:08;;;;;;;14.30;11.90;;;19.30;99.90;;;;;;5016555;28;20296;-33
2022/08/27 04:16:35;;;;;;;16.60;13.38;;;19.20;99.90;;;;;;5033156;28;20181;-32
2022/08/27 04:19:02;;;;;;;14.77;13.27;;;19.20;99.90;;;;;;5016608;28;20243;-33
2022/08/27 04:21:28;;;;;;;16.67;14.32;;;19.20;99.90;;;;;;5016572;28;20181;-32
2022/08/27 04:23:55;;;;;;;16.70;14.18;;;19.20;99.90;;;;;;5016060;28;20193;-32
2022/08/27 04:26:27;;;;;;;15.57;14.05;;;19.20;99.90;;;;;;5032736;28;20316;-33
2022/08/27 04:28:54;;;;;;;16.10;14.27;;;19.20;99.90;;;;;;5016414;28;20228;-33
2022/08/27 04:31:20;;;;;;;16.17;14.13;;;19.20;99.90;;;;;;5033095;28;20201;-33
2022/08/27 04:33:46;;;;;;;15.52;13.93;;;19.30;99.90;;;;;;5032884;28;20440;-33
2022/08/27 04:36:13;;;;;;;17.00;15.20;;;19.30;99.90;;;;;;5032975;28;20198;-32
2022/08/27 04:38:39;;;;;;;16.63;14.93;;;19.20;99.90;;;;;;5050481;28;20205;-33
2022/08/27 04:41:20;;;;;;;18.00;16.17;;;19.30;99.90;;;;;;5033013;28;20182;-33
2022/08/27 04:43:51;;;;;;;19.00;16.92;;;19.20;99.90;;;;;;5016361;28;20209;-33
2022/08/27 04:46:22;;;;;;;19.10;17.08;;;19.30;99.90;;;;;;5032891;28;20178;-32
2022/08/27 04:48:48;;;;;;;18.65;16.63;;;19.30;99.90;;;;;;5032564;28;20188;-33
2022/08/27 04:51:14;;;;;;;18.58;16.65;;;19.40;99.90;;;;;;5016012;28;20197;-33
2022/08/27 04:53:40;;;;;;;21.70;17.88;;;19.40;99.90;;;;;;5036052;28;20249;-33
2022/08/27 04:56:06;;;;;;;18.92;17.08;;;19.50;99.90;;;;;;5020231;28;20293;-33
2022/08/27 04:58:31;;;;;;;21.15;17.75;;;19.50;99.90;;;;;;5054576;28;20162;-33
2022/08/27 05:01:00;;;;;;;20.40;18.33;;;19.50;99.90;;;;;;5036403;28;20170;-32
2022/08/27 05:03:27;;;;;;;20.55;18.45;;;19.50;99.90;;;;;;5036802;28;20189;-32
2022/08/27 05:06:02;;;;;;;21.10;18.98;;;19.50;99.90;;;;;;5036261;28;20659;-33
2022/08/27 05:08:28;;;;;;;22.35;20.08;;;19.60;99.90;;;;;;5036487;28;20253;-33
2022/08/27 05:10:54;;;;;;;21.50;19.25;;;19.60;99.90;;;;;;5036637;28;20177;-32
2022/08/27 05:13:23;;;;;;;22.73;20.42;;;19.60;99.90;;;;;;5054462;28;20170;-33
2022/08/27 05:15:57;;;;;;;23.88;20.52;;;19.60;99.90;;;;;;5019898;28;20190;-33
2022/08/27 05:18:23;;;;;;;24.50;21.90;;;19.60;99.90;;;;;;5036055;28;20244;-32
2022/08/27 05:20:49;;;;;;;24.80;21.85;;;19.60;99.90;;;;;;5019752;28;20170;-33
2022/08/27 05:23:17;;;;;;;29.48;26.38;;;19.70;99.90;;;;;;5054269;28;20185;-33
2022/08/27 05:25:45;;;;;;;33.75;29.30;;;19.80;99.90;;;;;;5019822;28;20267;-32
2022/08/27 05:28:12;;;;;;;36.13;32.22;;;19.80;99.90;;;;;;5035940;28;20178;-33
2022/08/27 05:30:41;;;;;;;36.53;32.47;;;19.80;99.90;;;;;;5019716;28;20181;-33
2022/08/27 05:33:07;;;;;;;37.60;33.35;;;19.90;99.90;;;;;;5019290;28;20205;-33
2022/08/27 05:35:41;;;;;;;35.90;31.90;;;19.80;99.90;;;;;;5036091;28;20194;-33
2022/08/27 05:38:07;;;;;;;35.65;30.88;;;19.80;99.90;;;;;;5036078;28;20178;-33
2022/08/27 05:40:33;;;;;;;31.75;27.98;;;19.80;99.90;;;;;;5019558;28;20259;-33
2022/08/27 05:42:59;;;;;;;27.63;24.67;;;19.80;99.90;;;;;;5019606;28;20182;-32
2022/08/27 05:45:25;;;;;;;25.23;22.55;;;19.90;99.90;;;;;;5019129;28;20202;-33
2022/08/27 05:47:51;;;;;;;26.85;23.98;;;19.80;99.90;;;;;;5019080;28;20213;-34
2022/08/27 05:50:17;;;;;;;27.00;24.10;;;19.90;99.90;;;;;;5053753;28;20180;-33
2022/08/27 05:52:42;;;;;;;28.98;23.90;;;19.90;99.90;;;;;;5019365;28;20215;-34
2022/08/27 05:55:08;;;;;;;29.02;25.02;;;19.90;99.90;;;;;;5019331;28;20198;-33
2022/08/27 05:57:34;;;;;;;26.60;23.67;;;19.80;99.90;;;;;;5019025;28;20636;-33
2022/08/27 06:02:45;;;;;;;33.10;28.58;;;19.90;99.90;;;;;;5053530;28;20174;-33
2022/08/27 06:05:11;;;;;;;31.33;27.80;;;19.90;99.90;;;;;;5018901;28;20202;-33
2022/08/27 06:07:37;;;;;;;28.95;25.77;;;19.90;99.90;;;;;;5035255;28;20182;-33
2022/08/27 06:10:05;;;;;;;30.90;27.55;;;19.90;99.90;;;;;;5018931;28;20201;-33
2022/08/27 06:12:31;;;;;;;33.17;29.38;;;19.90;99.90;;;;;;5018659;28;20202;-33
2022/08/27 06:14:57;;;;;;;33.80;29.08;;;19.90;99.90;;;;;;5019174;28;20198;-33
2022/08/27 06:17:23;;;;;;;35.65;31.25;;;20.00;99.90;;;;;;5018568;28;20234;-33
2022/08/27 06:19:49;;;;;;;37.65;31.88;;;20.00;99.90;;;;;;5018816;28;20178;-33
2022/08/27 06:22:15;;;;;;;39.22;32.63;;;20.10;99.90;;;;;;5035359;28;20654;-33
2022/08/27 06:24:41;;;;;;;44.35;35.65;;;20.10;99.90;;;;;;5018641;28;20214;-33
2022/08/27 06:27:13;;;;;;;43.55;37.00;;;20.20;99.90;;;;;;5018179;28;20193;-34
2022/08/27 06:29:39;;;;;;;45.00;36.28;;;20.20;99.90;;;;;;5035220;28;20184;-33
2022/08/27 06:32:06;;;;;;;38.67;31.92;;;20.20;99.90;;;;;;5018828;28;20240;-33
2022/08/27 06:34:32;;;;;;;40.10;35.70;;;20.30;99.90;;;;;;5035025;28;20205;-33
2022/08/27 06:36:59;;;;;;;36.67;32.42;;;20.30;99.90;;;;;;5034814;28;20178;-33
2022/08/27 06:39:25;;;;;;;40.85;33.08;;;20.30;99.90;;;;;;5052792;28;20170;-33
2022/08/27 06:41:50;;;;;;;38.20;32.42;;;20.30;99.90;;;;;;5018201;28;20205;-33
2022/08/27 06:44:21;;;;;;;36.47;31.55;;;20.40;99.90;;;;;;5034595;28;20683;-33
2022/08/27 06:46:47;;;;;;;32.58;28.95;;;20.40;99.90;;;;;;5018148;28;20188;-33
2022/08/27 06:49:12;;;;;;;39.30;32.25;;;20.40;99.90;;;;;;5018379;28;20182;-33
2022/08/27 06:51:42;;;;;;;34.88;30.95;;;20.40;99.90;;;;;;5034404;28;20271;-33
2022/08/27 06:54:11;;;;;;;40.55;34.03;;;20.40;99.90;;;;;;5034512;28;20272;-33
2022/08/27 06:56:37;;;;;;;36.30;32.40;;;20.40;99.90;;;;;;5018114;28;20178;-34
2022/08/27 06:59:06;;;;;;;37.33;32.00;;;20.50;99.90;;;;;;5034515;28;20177;-33
2022/08/27 07:01:35;;;;;;;36.03;29.85;;;20.50;99.90;;;;;;5034609;28;20188;-33
2022/08/27 07:04:05;;;;;;;38.75;32.35;;;20.50;99.90;;;;;;5018020;28;20209;-33
2022/08/27 07:06:32;;;;;;;36.53;32.17;;;20.60;99.90;;;;;;5017993;28;20189;-33
2022/08/27 07:08:58;;;;;;;37.58;32.70;;;20.60;99.90;;;;;;5034319;28;20186;-33
2022/08/27 07:11:26;;;;;;;37.25;32.63;;;20.60;99.90;;;;;;5017637;28;20209;-33
2022/08/27 07:13:52;;;;;;;35.50;29.33;;;20.60;99.90;;;;;;5034265;28;20170;-34
2022/08/27 07:16:21;;;;;;;37.42;32.65;;;20.70;99.90;;;;;;5017014;28;20185;-34
2022/08/27 07:18:49;;;;;;;41.08;31.73;;;20.70;99.90;;;;;;5017094;28;20185;-33
2022/08/27 07:21:15;;;;;;;37.40;33.38;;;20.80;99.90;;;;;;5033896;28;20186;-34
2022/08/27 07:23:41;;;;;;;35.30;30.77;;;20.90;99.90;;;;;;5017596;28;20312;-33
2022/08/27 07:26:10;;;;;;;32.83;28.85;;;21.10;99.90;;;;;;5017260;28;20232;-34
2022/08/27 07:28:37;;;;;;;33.03;27.35;;;21.20;99.90;;;;;;5033900;28;20217;-33
2022/08/27 07:31:05;;;;;;;33.08;28.85;;;21.40;99.90;;;;;;5017323;28;20174;-33
2022/08/27 07:33:30;;;;;;;35.97;32.08;;;21.40;99.90;;;;;;5051884;28;20166;-33
2022/08/27 07:35:56;;;;;;;34.45;30.55;;;21.60;99.90;;;;;;5017370;28;20202;-33
2022/08/27 07:38:22;;;;;;;36.45;29.25;;;21.60;99.90;;;;;;5017215;28;20267;-33
2022/08/27 07:40:48;;;;;;;34.10;30.50;;;21.60;99.90;;;;;;5017252;28;20205;-33
2022/08/27 07:46:00;;;;;;;32.97;29.35;;;21.60;99.90;;;;;;5033702;28;20205;-34
2022/08/27 07:48:26;;;;;;;32.28;28.02;;;21.60;99.90;;;;;;5051775;28;20211;-33
2022/08/27 07:50:53;;;;;;;33.30;29.67;;;21.60;99.90;;;;;;5017300;28;20194;-33
2022/08/27 07:53:19;;;;;;;34.42;30.70;;;21.60;99.90;;;;;;5033793;28;20198;-33
2022/08/27 07:55:45;;;;;;;31.20;27.85;;;21.60;99.90;;;;;;5017274;28;20204;-33
2022/08/27 07:58:12;;;;;;;32.42;29.02;;;21.60;99.90;;;;;;5050881;28;20216;-33
2022/08/27 08:00:43;;;;;;;31.08;27.00;;;21.60;99.90;;;;;;5017095;28;20227;-33
2022/08/27 08:03:10;;;;;;;30.08;26.30;;;21.60;99.90;;;;;;5033097;28;20178;-33
2022/08/27 08:05:44;;;;;;;30.58;26.85;;;21.60;99.90;;;;;;5016873;28;20204;-33
2022/08/27 08:08:10;;;;;;;33.83;30.15;;;21.60;99.90;;;;;;5016838;28;20181;-33
2022/08/27 08:10:38;;;;;;;29.27;26.08;;;21.60;99.90;;;;;;5033386;28;20177;-34
2022/08/27 08:13:05;;;;;;;31.92;28.35;;;21.60;99.90;;;;;;5016799;28;20205;-33
2022/08/27 08:15:33;;;;;;;27.30;23.92;;;21.60;99.90;;;;;;5032824;28;20222;-33
2022/08/27 08:17:59;;;;;;;30.38;26.40;;;21.60;99.90;;;;;;5016233;28;20185;-33
2022/08/27 08:20:25;;;;;;;28.60;25.30;;;21.80;99.90;;;;;;5033085;28;20170;-34
2022/08/27 08:22:51;;;;;;;29.33;25.33;;;21.80;99.90;;;;;;5033203;28;20186;-33
2022/08/27 08:25:17;;;;;;;25.92;22.73;;;21.90;99.90;;;;;;5025825;23;20310;-87
2022/08/27 08:27:43;;;;;;;26.40;23.13;;;21.90;99.90;;;;;;4991219;28;20182;-87
2022/08/27 08:30:10;;;;;;;26.83;23.73;;;22.00;99.90;;;;;;5009423;28;20275;-87
2022/08/27 08:32:37;;;;;;;26.00;22.70;;;22.10;99.90;;;;;;4993475;28;20230;-87
2022/08/27 08:35:04;;;;;;;25.10;22.25;;;22.10;99.90;;;;;;4993931;28;20183;-87
2022/08/27 08:37:30;;;;;;;25.00;22.30;;;22.30;99.90;;;;;;4993593;28;20183;-87
2022/08/27 08:39:56;;;;;;;28.83;23.80;;;22.40;99.90;;;;;;5010098;28;20176;-87
2022/08/27 08:42:40;;;;;;;24.05;21.17;;;22.40;99.90;;;;;;4993630;28;20199;-87
2022/08/27 08:45:06;;;;;;;21.88;19.60;;;22.40;99.90;;;;;;4993704;28;20194;-88
2022/08/27 08:47:47;;;;;;;21.38;19.33;;;22.40;99.90;;;;;;4993422;28;20179;-87
2022/08/27 08:50:21;;;;;;;19.67;17.58;;;22.50;99.90;;;;;;5009925;28;20194;-87
2022/08/27 08:53:02;;;;;;;19.05;17.15;;;22.60;99.90;;;;;;5009916;28;20261;-87
2022/08/27 08:55:46;;;;;;;20.77;18.75;;;22.70;99.90;;;;;;4993672;28;20219;-87
2022/08/27 08:58:16;;;;;;;22.27;19.98;;;22.60;99.90;;;;;;4993262;28;20180;-87
2022/08/27 09:00:47;;;;;;;21.70;19.27;;;22.50;99.90;;;;;;4993660;28;20199;-87
2022/08/27 09:03:14;;;;;;;19.90;18.00;;;22.40;99.90;;;;;;4993318;28;20180;-87
2022/08/27 09:05:48;;;;;;;18.67;16.67;;;22.30;99.90;;;;;;4993483;28;20191;-87
2022/08/27 09:08:27;;;;;;;19.42;17.45;;;22.30;99.90;;;;;;4993327;28;20194;-87
2022/08/27 09:11:07;;;;;;;18.85;16.95;;;22.20;99.90;;;;;;4993379;28;20232;-87
2022/08/27 09:13:39;;;;;;;21.45;19.23;;;22.20;99.90;;;;;;4993647;28;20191;-87
2022/08/27 09:16:05;;;;;;;19.27;17.27;;;22.10;99.90;;;;;;4993396;28;20183;-87
2022/08/27 09:18:36;;;;;;;22.95;20.15;;;22.10;99.90;;;;;;4993140;28;20184;-87
2022/08/27 09:21:28;;;;;;;21.52;19.25;;;21.90;99.90;;;;;;4993333;28;20226;-87
2022/08/27 09:24:00;;;;;;;23.25;19.73;;;21.80;99.90;;;;;;4993469;28;20183;-87
2022/08/27 09:26:29;;;;;;;22.30;19.90;;;21.90;99.90;;;;;;4992886;28;20276;-87
2022/08/27 09:29:15;;;;;;;24.02;21.63;;;22.00;99.90;;;;;;4993100;28;20179;-87
2022/08/27 09:31:45;;;;;;;22.83;20.38;;;22.00;99.90;;;;;;4993278;28;20218;-87
2022/08/27 09:34:12;;;;;;;25.48;22.55;;;22.00;99.90;;;;;;4993365;28;20199;-87
2022/08/27 09:36:58;;;;;;;22.35;19.88;;;21.90;99.90;;;;;;4992887;28;20179;-87
2022/08/27 09:39:51;;;;;;;25.88;23.13;;;21.90;99.90;;;;;;4995443;28;20184;-87
2022/08/27 09:42:31;;;;;;;22.35;19.38;;;21.90;99.90;;;;;;4990715;28;20313;-88
2022/08/27 09:44:57;;;;;;;24.05;21.00;;;22.10;99.90;;;;;;4996590;28;20191;-87
2022/08/27 09:47:24;;;;;;;25.23;22.63;;;22.20;99.90;;;;;;4996734;28;20253;-87
2022/08/27 09:50:07;;;;;;;24.80;20.75;;;22.20;99.90;;;;;;4996620;28;20187;-87
2022/08/27 09:52:55;;;;;;;21.90;19.60;;;22.30;99.90;;;;;;5012919;28;20305;-88
2022/08/27 09:55:45;;;;;;;21.25;18.77;;;22.40;99.90;;;;;;4996502;28;20176;-88
2022/08/27 09:58:24;;;;;;;24.05;20.85;;;22.50;99.90;;;;;;4996458;28;20183;-88
2022/08/27 10:01:06;;;;;;;20.35;18.13;;;22.70;99.90;;;;;;4996260;28;20261;-88
2022/08/27 10:03:32;;;;;;;21.27;19.02;;;22.80;99.90;;;;;;4996399;28;20183;-88
2022/08/27 10:05:59;;;;;;;20.13;18.02;;;22.90;99.90;;;;;;4996151;28;20241;-88
2022/08/27 10:08:46;;;;;;;22.13;19.58;;;22.90;99.90;;;;;;4996082;28;20199;-89
2022/08/27 10:11:40;;;;;;;21.33;19.02;;;22.80;99.90;;;;;;4996031;28;20195;-88
2022/08/27 10:14:11;;;;;;;22.33;19.90;;;22.80;99.90;;;;;;4996095;28;20711;-89
2022/08/27 10:17:03;;;;;;;22.83;20.55;;;22.90;99.90;;;;;;5028861;28;20282;-88
2022/08/27 10:19:44;;;;;;;22.95;20.38;;;22.90;99.90;;;;;;4996286;28;20172;-88
2022/08/27 10:22:34;;;;;;;23.42;20.92;;;22.90;99.90;;;;;;4995877;28;20212;-88
2022/08/27 10:25:29;;;;;;;26.08;20.98;;;22.90;99.90;;;;;;5012265;28;20198;-88
2022/08/27 10:27:55;;;;;;;24.73;22.25;;;22.90;99.90;;;;;;4995694;28;20188;-88
2022/08/27 10:30:32;;;;;;;18.73;16.77;;;22.90;99.90;;;;;;4995814;28;20179;-88
2022/08/27 10:33:37;;;;;;;21.15;18.88;;;22.90;99.90;;;;;;4995817;28;20269;-89
2022/08/27 10:36:36;;;;;;;26.55;22.02;;;22.90;99.90;;;;;;4979668;28;20214;-88
2022/08/27 10:39:21;;;;;;;21.58;19.35;;;22.90;99.90;;;;;;4985949;28;20270;-88
2022/08/27 10:42:07;;;;;;;18.85;16.95;;;22.90;99.90;;;;;;4995423;28;20250;-88
2022/08/27 10:44:39;;;;;;;20.42;18.33;;;23.00;99.90;;;;;;4981855;28;20191;-89
2022/08/27 10:47:11;;;;;;;21.45;17.83;;;23.00;99.90;;;;;;5018323;28;20191;-88
2022/08/27 10:49:46;;;;;;;22.30;19.88;;;23.00;99.90;;;;;;4994571;28;20183;-88
2022/08/27 10:52:38;;;;;;;23.60;20.58;;;23.00;99.90;;;;;;4995445;28;20215;-88
2022/08/27 10:55:04;;;;;;;20.83;18.73;;;22.90;99.90;;;;;;5011780;28;20175;-88
2022/08/27 10:57:51;;;;;;;25.38;22.52;;;22.90;99.90;;;;;;4995393;28;20183;-88
2022/08/27 11:00:20;;;;;;;22.73;20.35;;;22.70;99.90;;;;;;5011593;28;20243;-88
2022/08/27 11:02:54;;;;;;;24.30;19.85;;;22.50;99.90;;;;;;4995361;28;20184;-88
2022/08/27 11:05:27;;;;;;;22.65;19.75;;;22.50;99.90;;;;;;4995336;28;20602;-88
2022/08/27 11:08:04;;;;;;;29.23;23.30;;;22.50;99.90;;;;;;4995146;28;20187;-88
2022/08/27 11:10:42;;;;;;;26.52;20.70;;;22.40;99.90;;;;;;4994799;28;20183;-88
2022/08/27 11:13:15;;;;;;;29.85;21.10;;;22.30;99.90;;;;;;4994987;28;20226;-88
2022/08/27 11:15:44;;;;;;;29.05;20.83;;;22.20;99.90;;;;;;4995287;28;20191;-88
2022/08/27 11:18:19;;;;;;;25.20;20.95;;;22.10;99.90;;;;;;4995033;28;20183;-88
2022/08/27 11:21:00;;;;;;;27.77;21.98;;;22.00;99.90;;;;;;4995323;28;20261;-89
2022/08/27 11:23:35;;;;;;;26.92;23.85;;;22.10;99.90;;;;;;4995215;28;20763;-88
2022/08/27 11:26:03;;;;;;;28.50;25.45;;;22.10;99.90;;;;;;4995385;28;20195;-88
2022/08/27 11:28:44;;;;;;;28.42;23.98;;;22.00;99.90;;;;;;4995563;28;20270;-88
2022/08/27 11:31:35;;;;;;;24.83;22.13;;;22.00;99.90;;;;;;4995776;28;20298;-87
2022/08/27 11:34:09;;;;;;;28.48;25.33;;;21.90;99.90;;;;;;5000713;28;20186;-88
2022/08/27 11:37:02;;;;;;;26.90;23.98;;;21.90;99.90;;;;;;4998112;28;20176;-88
2022/08/27 11:39:47;;;;;;;28.58;25.42;;;21.80;99.90;;;;;;4995625;28;20258;-88
2022/08/27 11:42:42;;;;;;;26.52;23.60;;;21.80;99.90;;;;;;4994818;28;20290;-88
2022/08/27 11:45:29;;;;;;;23.13;19.23;;;21.80;99.90;;;;;;4994592;28;20657;-88
2022/08/27 11:48:13;;;;;;;18.83;15.07;;;21.70;99.90;;;;;;4994276;28;20183;-88
2022/08/27 11:50:39;;;;;;;15.70;12.60;;;21.60;99.90;;;;;;4994364;28;20230;-88
2022/08/27 11:53:06;;;;;;;12.57;11.18;;;21.60;99.90;;;;;;4994245;28;20401;-88
2022/08/27 11:55:38;;;;;;;14.30;11.07;;;21.50;99.90;;;;;;5010918;28;20175;-88
2022/08/27 11:58:20;;;;;;;12.63;11.02;;;21.40;99.90;;;;;;4994111;28;20237;-88
2022/08/27 12:00:47;;;;;;;14.05;11.63;;;21.30;99.90;;;;;;5010423;28;20215;-88
2022/08/27 12:03:19;;;;;;;12.05;10.68;;;21.10;99.90;;;;;;4994139;28;20194;-88
2022/08/27 12:05:47;;;;;;;12.10;10.38;;;21.10;99.90;;;;;;4993950;28;20179;-88
2022/08/27 12:08:24;;;;;;;12.75;11.45;;;21.10;99.90;;;;;;4994032;28;20260;-88
2022/08/27 12:11:19;;;;;;;11.95;10.75;;;21.20;99.90;;;;;;4993692;28;20257;-88
2022/08/27 12:13:45;;;;;;;12.15;10.95;;;21.20;99.90;;;;;;4993819;28;20560;-88
2022/08/27 12:16:36;;;;;;;11.90;10.68;;;21.10;99.90;;;;;;4994144;28;20281;-88
2022/08/27 12:19:31;;;;;;;11.98;10.85;;;21.10;99.90;;;;;;4993462;28;20175;-88
2022/08/27 12:22:22;;;;;;;14.18;12.68;;;21.10;99.90;;;;;;5009712;28;20207;-88
2022/08/27 12:24:54;;;;;;;12.10;11.02;;;21.20;99.90;;;;;;4993637;28;20294;-89
2022/08/27 12:27:20;;;;;;;12.30;11.13;;;21.20;99.90;;;;;;4993483;28;20246;-88
2022/08/27 12:29:58;;;;;;;14.25;12.90;;;21.20;99.90;;;;;;4993193;28;20273;-88
2022/08/27 12:32:43;;;;;;;13.77;12.48;;;21.10;99.90;;;;;;4993904;28;20218;-88
2022/08/27 12:35:15;;;;;;;13.23;11.82;;;21.20;99.90;;;;;;4994394;28;20183;-88
2022/08/27 12:38:03;;;;;;;14.82;13.32;;;21.20;99.90;;;;;;4996240;28;20183;-88
2022/08/27 12:40:44;;;;;;;15.80;14.20;;;21.30;99.90;;;;;;4996209;28;20187;-88
2022/08/27 12:43:14;;;;;;;12.85;11.70;;;21.30;99.90;;;;;;4993588;28;20306;-88
2022/08/27 12:45:45;;;;;;;14.50;13.10;;;21.30;99.90;;;;;;5009747;28;20186;-88
2022/08/27 12:48:12;;;;;;;14.52;13.02;;;21.30;99.90;;;;;;4993321;28;20279;-88
2022/08/27 12:50:38;;;;;;;13.65;12.25;;;21.40;99.90;;;;;;4993553;28;20230;-88
2022/08/27 12:53:11;;;;;;;14.90;13.38;;;21.30;99.90;;;;;;4993373;28;20294;-88
2022/08/27 12:55:45;;;;;;;13.68;12.38;;;21.30;99.90;;;;;;4993472;28;20183;-88